Brunswick, ME (04011)

10:02 PM EDT on June 23, 2017 (GMT -0400)
Jordan Acres | | Change Station
Active Advisory: Coastal Flood Statement Active Notice: Coastal Flood Statement

Elev 39 ft 43.92 °N, 69.95 °W | Updated 3 minutes ago

Mostly Cloudy
Mostly Cloudy
66.2 °F
Feels Like 66.2 °F
N
0.0
Wind Variable Wind from East
Gusts 5.0 mph

Today
High -- | Low -- °F
--% Chance of Precip.
Yesterday
High -- | Low -- °F
Precip. -- in
Pressure 29.60 in
Visibility 9.0 miles
Clouds Overcast 800 ft
Dew Point 64 °F
Humidity 92%
Rainfall 0.17 in
Snow Depth Not available.
4:57 AM 8:26 PM
Waning Crescent, 0% visible
METAR KIWI 240153Z AUTO VRB05KT 9SM OVC008 20/18 A2960 RMK AO2 SLP022 T02000183
Pressure 29.60 in
Visibility 9.0 miles
Clouds Overcast 800 ft
Dew Point 64 °F
Humidity 92%
Rainfall 0.17 in
Snow Depth Not available.
4:57 AM 8:26 PM
Waning Crescent, 0% visible
METAR KIWI 240153Z AUTO VRB05KT 9SM OVC008 20/18 A2960 RMK AO2 SLP022 T02000183

Get Your Daily Forecast Email!

Thanks for signing up!

Be on the lookout for a verification email in your inbox.

You'll start receiving severe weather alerts in your inbox..

×

10-Day Weather Forecast

Almanac

Astronomy

Jun. 23, 2017 Rise Set
Actual Time
Civil Twilight
Nautical Twilight
Astronomical Twilight
Moon
Length of Visible Light
Length of Day
Tomorrow will be .
, % of the Moon is Illuminated

Today's Extremes

State Highs State Lows

Community

WunderPhotos

Category 6

Welcome to Category 6. This is the collective home for Weather Underground's featured writeups by Dr. Jeff Masters (right), Bob Henson (left), Chris Burt, and other regular contributors.

Nearby

Air Quality

  Air Quality AQ Index Pollutant
Not available.

Snow Depth

Station Depth Elevation

Earthquake Activity

City Distance Mag. Time & Date
Minimum magnitude displayed is 2.5.

Coastal Water Temperatures

Place Temperature

Stations

Nearby Weather Stations

Station Location Temp. Windchill Dew Point Humidity Wind Precip. Elev Updated Type
                   

Watches & Warnings

Coastal Flood Statement
Issued: 3:08 PM EDT Jun. 23, 2017 – National Weather Service

* location... from Portland Harbor and points south to Hampton New
Hampshire.

* Coastal flooding... very minor around the time of high tide.

* Timing... late this evening.

Jc